Terminal Aerodrome Forecast
Issued by NWS

Home | Current Version | Previous Version | Text Only | Print | Product List | Glossary Off
Versions: 1 2 3 4 5 6 7 8 9 10 11 12 13 14 15 16 17 18

000
FTUS43 KMPX 282346
TAFAXN
TAF
KAXN 282346Z 2900/2924 34005KT P6SM VCSH SCT020 OVC100
     FM290400 31005KT P6SM VCSH OVC035
     FM291000 29004KT P6SM BKN010
     FM291600 29009KT P6SM BKN035
     FM292100 28012KT P6SM SCT150=

USA.gov is the U.S. government's official web portal to all federal, state and local government web resources and services.